This is the latest recevied weather packets stored in our database for station/object DL6DJ-15. If no packets are shown the sender has not sent any weather packets the latest 10 day(s).
| Time | Temp. | Humidity | Pressure | Rain* | Wind** | Luminosity | Snow |
|---|---|---|---|---|---|---|---|
| 1787997450 | 27.78° C | 42% | 1019.8 hPa | - | - | - | - |
| 1787997149 | 26.67° C | 46% | 1019.9 hPa | - | - | - | - |
| 1787996849 | 25° C | 48% | 1019.9 hPa | - | - | - | - |
| 1787996549 | 26.67° C | 42% | 1019.9 hPa | - | - | - | - |
| 1787996248 | 26.67° C | 44% | 1019.9 hPa | - | - | - | - |
| 1787995948 | 27.22° C | 43% | 1019.9 hPa | - | - | - | - |
| 1787995647 | 25.56° C | 48% | 1020 hPa | - | - | - | - |
| 1787995347 | 23.33° C | 54% | 1020.1 hPa | - | - | - | - |
| 1787995047 | 21.67° C | 59% | 1020.1 hPa | - | - | - | - |
| 1787994746 | 21.11° C | 62% | 1020.1 hPa | - | - | - | - |
| 1787994446 | 21.67° C | 59% | 1020 hPa | - | - | - | - |
| 1787994146 | 22.22° C | 55% | 1020.1 hPa | - | - | - | - |
| 1787993845 | 22.22° C | 57% | 1020.2 hPa | - | - | - | - |
| 1787993545 | 23.33° C | 54% | 1020.2 hPa | - | - | - | - |
| 1787993244 | 24.44° C | 51% | 1020.1 hPa | - | - | - | - |
| 1787992944 | 24.44° C | 55% | 1020 hPa | - | - | - | - |
| 1787992644 | 22.78° C | 56% | 1020.1 hPa | - | - | - | - |
| 1787992343 | 23.89° C | 52% | 1020.1 hPa | - | - | - | - |
| 1787992043 | 25.56° C | 46% | 1019.9 hPa | - | - | - | - |
| 1787991742 | 26.11° C | 49% | 1020 hPa | - | - | - | - |
| 1787991442 | 25° C | 52% | 1019.9 hPa | - | - | - | - |
| 1787991142 | 23.33° C | 55% | 1020 hPa | - | - | - | - |
| 1787990841 | 25° C | 51% | 1020 hPa | - | - | - | - |
| 1787990541 | 23.89° C | 55% | 1020 hPa | - | - | - | - |
| 1787990240 | 24.44° C | 56% | 1020 hPa | - | - | - | - |
* Rain since midnight (hover to see other rain measurements)
** Current wind speed in m/s (hover to see current wind gust speed)